Time;durP1;ratioP1;P1;durP2;ratioP2;P2;SDS_P1;SDS_P2;PMS_P1;PMS_P2;Temp;Humidity;BMP_temperature;BMP_pressure;BME280_temperature;BME280_humidity;BME280_pressure;Samples;Min_cycle;Max_cycle;Signal;HPM_P1;HPM_P2
2022/08/30 00:01:32;;;;;;;19.83;14.15;;;;;;;;;;5128880;27;20051;-79
2022/08/30 00:03:59;;;;;;;20.48;13.70;;;;;;;;;;5115631;27;20043;-77
2022/08/30 00:06:27;;;;;;;19.05;13.57;;;;;;;;;;5104004;28;20020;-78
2022/08/30 00:08:53;;;;;;;21.23;15.15;;;;;;;;;;5092901;28;20065;-78
2022/08/30 00:11:24;;;;;;;23.02;15.30;;;;;;;;;;5106766;27;20036;-78
2022/08/30 00:13:54;;;;;;;24.85;19.95;;;;;;;;;;5090408;28;20024;-78
2022/08/30 00:16:21;;;;;;;27.80;20.55;;;;;;;;;;5118231;27;20476;-77
2022/08/30 00:18:47;;;;;;;31.63;22.25;;;;;;;;;;5073302;28;20035;-79
2022/08/30 00:21:17;;;;;;;28.95;19.58;;;;;;;;;;5100906;28;20061;-79
2022/08/30 00:23:43;;;;;;;28.77;22.13;;;;;;;;;;5101106;28;20044;-78
2022/08/30 00:26:09;;;;;;;27.08;21.70;;;;;;;;;;5126848;27;20028;-78
2022/08/30 00:28:36;;;;;;;33.47;21.15;;;;;;;;;;5094387;28;20027;-79
2022/08/30 00:31:05;;;;;;;31.05;21.45;;;;;;;;;;5087165;28;20039;-78
2022/08/30 00:33:31;;;;;;;25.60;19.98;;;;;;;;;;5093453;28;20027;-79
2022/08/30 00:35:57;;;;;;;32.40;21.77;;;;;;;;;;5118410;27;20046;-77
2022/08/30 00:38:23;;;;;;;26.63;20.45;;;;;;;;;;5086516;28;20493;-79
2022/08/30 00:40:50;;;;;;;28.30;20.77;;;;;;;;;;5121648;27;20016;-77
2022/08/30 00:43:18;;;;;;;28.38;20.27;;;;;;;;;;5126789;27;20024;-77
2022/08/30 00:45:44;;;;;;;32.67;20.30;;;;;;;;;;5126531;27;20033;-77
2022/08/30 00:48:10;;;;;;;36.35;20.20;;;;;;;;;;5093564;28;20047;-78
2022/08/30 00:50:41;;;;;;;32.70;22.00;;;;;;;;;;5092250;28;20432;-78
2022/08/30 00:53:09;;;;;;;27.75;21.38;;;;;;;;;;5093370;28;20024;-77
2022/08/30 00:55:35;;;;;;;33.35;22.50;;;;;;;;;;5092032;28;20024;-78
2022/08/30 00:58:03;;;;;;;34.85;24.30;;;;;;;;;;5107913;28;20077;-78
2022/08/30 01:00:29;;;;;;;28.50;20.77;;;;;;;;;;5128356;27;20020;-79
2022/08/30 01:02:55;;;;;;;27.80;21.55;;;;;;;;;;5077603;28;20017;-77
2022/08/30 01:05:22;;;;;;;32.67;24.70;;;;;;;;;;5133623;27;20049;-79
2022/08/30 01:07:48;;;;;;;36.60;24.17;;;;;;;;;;5098223;28;20066;-79
2022/08/30 01:10:15;;;;;;;35.58;25.10;;;;;;;;;;5091915;28;20016;-80
2022/08/30 01:12:41;;;;;;;35.38;25.73;;;;;;;;;;5125995;27;20016;-78
2022/08/30 01:15:09;;;;;;;37.80;25.48;;;;;;;;;;5104556;28;20027;-78
2022/08/30 01:17:35;;;;;;;35.22;22.08;;;;;;;;;;5089378;28;20153;-78
2022/08/30 01:20:04;;;;;;;38.80;23.13;;;;;;;;;;5119493;27;20532;-79
2022/08/30 01:22:35;;;;;;;34.00;21.35;;;;;;;;;;5091239;28;20043;-79
2022/08/30 01:25:02;;;;;;;29.88;19.83;;;;;;;;;;5091608;28;20024;-77
2022/08/30 01:27:29;;;;;;;35.67;19.48;;;;;;;;;;5092966;28;20047;-79
2022/08/30 01:29:56;;;;;;;32.05;22.88;;;;;;;;;;5117406;27;20021;-78
2022/08/30 01:32:24;;;;;;;29.63;22.00;;;;;;;;;;5105631;28;20054;-78
2022/08/30 01:34:50;;;;;;;31.75;21.20;;;;;;;;;;5080862;28;20024;-78
2022/08/30 01:37:22;;;;;;;35.13;21.88;;;;;;;;;;5125343;27;20066;-79
2022/08/30 01:39:49;;;;;;;35.10;20.67;;;;;;;;;;5125867;27;20023;-80
2022/08/30 01:42:18;;;;;;;35.42;19.95;;;;;;;;;;5124563;27;20151;-78
2022/08/30 01:44:46;;;;;;;35.45;20.48;;;;;;;;;;5112436;27;20043;-79
2022/08/30 01:47:12;;;;;;;41.33;22.75;;;;;;;;;;5125662;27;20020;-77
2022/08/30 01:49:39;;;;;;;37.53;22.40;;;;;;;;;;5110793;27;20016;-78
2022/08/30 01:52:06;;;;;;;29.33;20.15;;;;;;;;;;5090991;28;20043;-77
2022/08/30 01:54:33;;;;;;;36.38;24.23;;;;;;;;;;5125274;27;20035;-81
2022/08/30 01:56:59;;;;;;;32.95;21.63;;;;;;;;;;5092748;28;20366;-78
2022/08/30 01:59:25;;;;;;;39.53;23.67;;;;;;;;;;5092394;28;20024;-75
2022/08/30 02:01:51;;;;;;;38.80;24.20;;;;;;;;;;5124262;27;20424;-80
2022/08/30 02:04:17;;;;;;;30.90;21.08;;;;;;;;;;5125140;27;20381;-79
2022/08/30 02:06:43;;;;;;;27.63;19.40;;;;;;;;;;5139400;27;20015;-80
2022/08/30 02:09:10;;;;;;;39.30;24.50;;;;;;;;;;5125181;27;20016;-77
2022/08/30 02:11:37;;;;;;;32.58;21.42;;;;;;;;;;5125012;27;20036;-79
2022/08/30 02:14:03;;;;;;;40.10;21.95;;;;;;;;;;5124677;27;20039;-79
2022/08/30 02:16:29;;;;;;;40.80;23.23;;;;;;;;;;5125235;27;20033;-77
2022/08/30 02:18:56;;;;;;;33.05;20.70;;;;;;;;;;5124806;27;20036;-77
2022/08/30 02:21:22;;;;;;;34.08;21.92;;;;;;;;;;5091211;28;20406;-79
2022/08/30 02:23:49;;;;;;;31.48;22.23;;;;;;;;;;5110165;27;20102;-82
2022/08/30 02:26:16;;;;;;;35.65;22.70;;;;;;;;;;5091669;28;20091;-80
2022/08/30 02:28:42;;;;;;;34.80;22.13;;;;;;;;;;5090710;28;20020;-81
2022/08/30 02:31:08;;;;;;;39.83;23.83;;;;;;;;;;5124526;27;20127;-81
2022/08/30 02:33:34;;;;;;;38.30;23.40;;;;;;;;;;5111491;27;20024;-79
2022/08/30 02:36:00;;;;;;;40.30;24.42;;;;;;;;;;5103399;28;20482;-80
2022/08/30 02:38:26;;;;;;;40.63;25.15;;;;;;;;;;5115766;27;20035;-77
2022/08/30 02:40:52;;;;;;;38.13;24.77;;;;;;;;;;5110174;27;20032;-78
2022/08/30 02:43:19;;;;;;;45.25;24.60;;;;;;;;;;5091519;28;20012;-79
2022/08/30 02:45:45;;;;;;;41.88;24.42;;;;;;;;;;5090155;28;20514;-78
2022/08/30 02:48:11;;;;;;;39.05;24.60;;;;;;;;;;5117070;28;20382;-80
2022/08/30 02:50:44;;;;;;;42.17;25.42;;;;;;;;;;5117756;27;20036;-79
2022/08/30 02:53:10;;;;;;;41.00;24.80;;;;;;;;;;5117924;28;20021;-78
2022/08/30 02:55:36;;;;;;;50.17;27.48;;;;;;;;;;5084104;28;20263;-78
2022/08/30 02:58:02;;;;;;;45.88;26.38;;;;;;;;;;5091575;28;20078;-77
2022/08/30 03:00:28;;;;;;;52.00;29.75;;;;;;;;;;5124332;27;20024;-79
2022/08/30 03:02:54;;;;;;;44.67;28.52;;;;;;;;;;5096242;28;20020;-75
2022/08/30 03:05:20;;;;;;;45.03;28.30;;;;;;;;;;5091506;28;20016;-78
2022/08/30 03:07:47;;;;;;;65.25;34.10;;;;;;;;;;5090900;28;20020;-78
2022/08/30 03:10:14;;;;;;;48.70;29.30;;;;;;;;;;5089985;28;20073;-79
2022/08/30 03:12:40;;;;;;;50.70;30.63;;;;;;;;;;5090161;28;20021;-78
2022/08/30 03:15:07;;;;;;;49.60;29.63;;;;;;;;;;5124258;27;20494;-79
2022/08/30 03:17:33;;;;;;;59.83;32.47;;;;;;;;;;5119349;27;20017;-79
2022/08/30 03:20:00;;;;;;;49.97;30.50;;;;;;;;;;5080424;28;20024;-78
2022/08/30 03:22:27;;;;;;;51.45;30.50;;;;;;;;;;5126476;27;20051;-79
2022/08/30 03:24:56;;;;;;;61.25;30.88;;;;;;;;;;5097276;28;20016;-76
2022/08/30 03:27:22;;;;;;;54.30;31.42;;;;;;;;;;5098145;28;20016;-79
2022/08/30 03:29:49;;;;;;;54.15;30.15;;;;;;;;;;5097412;28;20024;-77
2022/08/30 03:32:15;;;;;;;53.83;29.35;;;;;;;;;;5128652;27;20039;-78
2022/08/30 03:34:41;;;;;;;61.72;31.00;;;;;;;;;;5127964;27;20024;-76
2022/08/30 03:37:07;;;;;;;60.00;32.90;;;;;;;;;;5127824;27;20070;-79
2022/08/30 03:39:33;;;;;;;55.83;32.10;;;;;;;;;;5095245;28;20021;-78
2022/08/30 03:41:59;;;;;;;62.13;34.65;;;;;;;;;;5127709;27;20020;-77
2022/08/30 03:44:25;;;;;;;62.15;33.63;;;;;;;;;;5093678;28;20112;-78
2022/08/30 03:46:52;;;;;;;51.90;31.80;;;;;;;;;;5127879;27;20026;-78
2022/08/30 03:49:18;;;;;;;61.42;34.42;;;;;;;;;;5142352;27;20023;-79
2022/08/30 03:51:45;;;;;;;63.47;33.88;;;;;;;;;;5102262;28;20035;-77
2022/08/30 03:54:11;;;;;;;66.32;36.33;;;;;;;;;;5097719;28;20105;-78
2022/08/30 03:56:37;;;;;;;70.55;37.22;;;;;;;;;;5114210;27;20043;-79
2022/08/30 03:59:03;;;;;;;57.08;35.58;;;;;;;;;;5114303;27;20020;-78
2022/08/30 04:01:29;;;;;;;64.50;36.10;;;;;;;;;;5126623;27;20433;-78
2022/08/30 04:03:55;;;;;;;61.75;36.72;;;;;;;;;;5096387;28;20020;-77
2022/08/30 04:06:22;;;;;;;56.17;32.58;;;;;;;;;;5127056;27;20039;-77
2022/08/30 04:08:48;;;;;;;54.03;34.22;;;;;;;;;;5093124;28;20016;-76
2022/08/30 04:11:15;;;;;;;58.67;35.05;;;;;;;;;;5094093;28;20028;-76
2022/08/30 04:13:41;;;;;;;58.17;33.08;;;;;;;;;;5127083;27;20024;-78
2022/08/30 04:16:08;;;;;;;35.95;24.98;;;;;;;;;;5092966;28;20016;-78
2022/08/30 04:18:34;;;;;;;33.65;24.95;;;;;;;;;;5092560;28;20020;-77
2022/08/30 04:21:01;;;;;;;32.53;22.38;;;;;;;;;;5094276;28;20019;-78
2022/08/30 04:23:27;;;;;;;25.60;19.92;;;;;;;;;;5126548;27;20056;-80
2022/08/30 04:25:54;;;;;;;20.45;16.13;;;;;;;;;;5094023;28;20027;-79
2022/08/30 04:28:20;;;;;;;18.05;14.27;;;;;;;;;;5094167;28;20054;-79
2022/08/30 04:30:46;;;;;;;18.45;15.02;;;;;;;;;;5115024;27;20089;-80
2022/08/30 04:33:13;;;;;;;17.20;13.75;;;;;;;;;;5092998;28;20065;-81
2022/08/30 04:35:43;;;;;;;17.17;13.18;;;;;;;;;;5094499;28;20490;-77
2022/08/30 04:38:10;;;;;;;15.52;12.70;;;;;;;;;;5129866;27;20024;-77
2022/08/30 04:40:36;;;;;;;16.65;13.23;;;;;;;;;;5129170;27;20017;-79
2022/08/30 04:43:02;;;;;;;15.00;12.38;;;;;;;;;;5128630;27;20016;-77
2022/08/30 04:45:28;;;;;;;19.52;13.13;;;;;;;;;;5126968;27;20024;-76
2022/08/30 04:47:54;;;;;;;17.27;13.98;;;;;;;;;;5120976;27;20027;-76
2022/08/30 04:50:21;;;;;;;19.15;15.50;;;;;;;;;;5117449;27;20527;-77
2022/08/30 04:52:48;;;;;;;22.33;16.48;;;;;;;;;;5092292;28;20375;-78
2022/08/30 04:55:14;;;;;;;31.05;16.75;;;;;;;;;;5092266;28;20054;-80
2022/08/30 04:57:40;;;;;;;20.13;14.07;;;;;;;;;;5091608;28;20028;-78
2022/08/30 05:00:08;;;;;;;21.63;15.38;;;;;;;;;;5126252;27;20020;-77
2022/08/30 05:02:34;;;;;;;32.35;20.80;;;;;;;;;;5091583;28;20074;-78
2022/08/30 05:07:46;;;;;;;41.10;23.05;;;;;;;;;;5092718;28;20039;-79
2022/08/30 05:10:12;;;;;;;46.25;24.92;;;;;;;;;;5092201;28;20470;-78
2022/08/30 05:12:38;;;;;;;34.63;23.65;;;;;;;;;;5091295;28;20074;-80
2022/08/30 05:15:05;;;;;;;38.80;25.00;;;;;;;;;;5126060;27;20427;-80
2022/08/30 05:17:31;;;;;;;27.20;20.48;;;;;;;;;;5093135;28;20138;-79
2022/08/30 05:19:57;;;;;;;37.50;22.27;;;;;;;;;;5115320;27;20021;-79
2022/08/30 05:22:23;;;;;;;42.53;20.63;;;;;;;;;;5087561;28;20048;-79
2022/08/30 05:24:49;;;;;;;28.70;22.10;;;;;;;;;;5113781;27;20387;-77
2022/08/30 05:27:15;;;;;;;34.85;23.40;;;;;;;;;;5110943;27;20031;-80
2022/08/30 05:29:41;;;;;;;33.47;22.90;;;;;;;;;;5111686;27;20413;-77
2022/08/30 05:32:08;;;;;;;37.97;22.30;;;;;;;;;;5111174;27;20036;-79
2022/08/30 05:34:34;;;;;;;39.42;21.25;;;;;;;;;;5125629;27;20022;-78
2022/08/30 05:37:01;;;;;;;31.77;22.02;;;;;;;;;;5091348;28;20024;-78
2022/08/30 05:39:28;;;;;;;38.92;24.45;;;;;;;;;;5111138;27;20024;-79
2022/08/30 05:41:57;;;;;;;39.17;24.80;;;;;;;;;;5091283;28;20074;-79
2022/08/30 05:44:23;;;;;;;32.58;21.88;;;;;;;;;;5125295;27;20440;-77
2022/08/30 05:46:49;;;;;;;32.45;22.33;;;;;;;;;;5122194;27;20433;-86
2022/08/30 05:49:16;;;;;;;28.58;21.02;;;;;;;;;;5126309;27;20020;-83
2022/08/30 05:51:42;;;;;;;31.40;23.33;;;;;;;;;;5092067;28;20036;-83
2022/08/30 05:54:08;;;;;;;38.75;21.13;;;;;;;;;;5092230;28;20110;-82
2022/08/30 05:56:36;;;;;;;35.58;21.42;;;;;;;;;;5091815;28;20030;-83
2022/08/30 05:59:03;;;;;;;28.33;22.50;;;;;;;;;;5112007;27;20020;-84
2022/08/30 06:01:34;;;;;;;31.38;21.73;;;;;;;;;;5108029;27;20081;-81
2022/08/30 06:04:01;;;;;;;27.65;19.52;;;;;;;;;;5094902;28;20108;-85
2022/08/30 06:06:28;;;;;;;33.97;21.95;;;;;;;;;;5120191;27;20024;-85
2022/08/30 06:08:57;;;;;;;30.17;21.50;;;;;;;;;;5112819;27;20479;-85
2022/08/30 06:11:24;;;;;;;34.85;22.02;;;;;;;;;;5126952;27;20036;-86
2022/08/30 06:13:51;;;;;;;39.70;22.75;;;;;;;;;;5116133;27;20085;-84
2022/08/30 06:16:18;;;;;;;38.05;22.60;;;;;;;;;;5092406;28;20027;-84
2022/08/30 06:18:45;;;;;;;47.30;23.45;;;;;;;;;;5115153;27;20065;-81
2022/08/30 06:21:17;;;;;;;35.55;21.90;;;;;;;;;;5092527;28;20479;-84
2022/08/30 06:23:44;;;;;;;31.00;22.13;;;;;;;;;;5111698;27;20055;-80
2022/08/30 06:26:11;;;;;;;33.28;21.48;;;;;;;;;;5091430;28;20371;-82
2022/08/30 06:28:37;;;;;;;32.35;21.40;;;;;;;;;;5091484;28;20027;-83
2022/08/30 06:31:13;;;;;;;33.30;22.45;;;;;;;;;;5091853;28;20445;-83
2022/08/30 06:33:39;;;;;;;33.03;21.58;;;;;;;;;;5085251;28;20501;-82
2022/08/30 06:36:07;;;;;;;32.70;22.38;;;;;;;;;;5090616;28;20016;-81
2022/08/30 06:38:33;;;;;;;31.30;20.95;;;;;;;;;;5124938;27;20495;-78
2022/08/30 06:40:59;;;;;;;25.40;19.60;;;;;;;;;;5092061;28;20024;-79
2022/08/30 06:43:28;;;;;;;36.50;22.95;;;;;;;;;;5124865;27;20023;-82
2022/08/30 06:45:54;;;;;;;31.98;21.17;;;;;;;;;;5090906;28;20052;-85
2022/08/30 06:48:21;;;;;;;33.30;21.52;;;;;;;;;;5125456;28;20026;-83
2022/08/30 06:50:52;;;;;;;32.10;21.98;;;;;;;;;;5107790;28;20032;-81
2022/08/30 06:53:18;;;;;;;32.95;21.13;;;;;;;;;;5090894;28;20070;-79
2022/08/30 06:55:44;;;;;;;32.20;21.42;;;;;;;;;;5091091;28;20028;-79
2022/08/30 06:58:10;;;;;;;37.63;21.42;;;;;;;;;;5124878;27;20474;-81
2022/08/30 07:00:37;;;;;;;31.17;19.60;;;;;;;;;;5139962;27;20035;-81
2022/08/30 07:03:03;;;;;;;26.50;18.73;;;;;;;;;;5096413;28;20491;-82
2022/08/30 07:05:29;;;;;;;26.90;17.25;;;;;;;;;;5095613;28;20035;-82
2022/08/30 07:07:55;;;;;;;37.15;18.88;;;;;;;;;;5095710;28;20428;-82
2022/08/30 07:10:21;;;;;;;26.63;17.15;;;;;;;;;;5129588;27;20016;-82
2022/08/30 07:12:48;;;;;;;20.55;16.48;;;;;;;;;;5096788;28;20103;-82
2022/08/30 07:15:14;;;;;;;28.10;17.75;;;;;;;;;;5129899;27;20016;-82
2022/08/30 07:20:25;;;;;;;29.58;16.95;;;;;;;;;;5093087;28;20116;-80
2022/08/30 07:22:51;;;;;;;25.60;16.25;;;;;;;;;;5138251;27;20098;-80
2022/08/30 07:25:17;;;;;;;23.30;15.32;;;;;;;;;;5095181;28;20058;-81
2022/08/30 07:27:44;;;;;;;27.67;15.05;;;;;;;;;;5095240;28;20142;-81
2022/08/30 07:30:11;;;;;;;23.33;15.32;;;;;;;;;;5129256;27;20025;-81
2022/08/30 07:32:37;;;;;;;22.58;15.50;;;;;;;;;;5096572;28;20032;-81
2022/08/30 07:35:03;;;;;;;24.48;14.95;;;;;;;;;;5129420;27;20045;-81
2022/08/30 07:37:29;;;;;;;22.13;14.40;;;;;;;;;;5095004;28;20024;-81
2022/08/30 07:39:55;;;;;;;19.15;14.48;;;;;;;;;;5119628;27;20021;-82
2022/08/30 07:42:21;;;;;;;20.23;14.57;;;;;;;;;;5093420;28;20108;-85
2022/08/30 07:44:48;;;;;;;25.92;15.20;;;;;;;;;;5129565;27;20024;-82
2022/08/30 07:47:15;;;;;;;24.58;14.38;;;;;;;;;;5095687;28;20016;-85
2022/08/30 07:49:42;;;;;;;23.98;15.57;;;;;;;;;;5095845;28;20020;-81
2022/08/30 07:52:08;;;;;;;24.80;15.55;;;;;;;;;;5129407;27;20036;-82
2022/08/30 07:54:34;;;;;;;19.40;16.00;;;;;;;;;;5126642;27;20051;-85
2022/08/30 07:57:00;;;;;;;22.48;12.70;;;;;;;;;;5086080;28;20027;-85
2022/08/30 07:59:26;;;;;;;24.23;14.70;;;;;;;;;;5129160;27;20024;-85
2022/08/30 08:01:52;;;;;;;16.80;12.73;;;;;;;;;;5130044;27;20507;-82
2022/08/30 08:04:18;;;;;;;24.38;14.85;;;;;;;;;;5127692;27;20111;-82
2022/08/30 08:06:44;;;;;;;22.92;15.70;;;;;;;;;;5117036;27;20036;-83
2022/08/30 08:09:10;;;;;;;20.25;13.80;;;;;;;;;;5126946;27;20101;-85
2022/08/30 08:11:36;;;;;;;18.73;15.18;;;;;;;;;;5091500;28;20038;-84
2022/08/30 08:14:03;;;;;;;26.45;14.43;;;;;;;;;;5125737;27;20021;-85
2022/08/30 08:16:30;;;;;;;40.10;34.58;;;;;;;;;;5092186;28;20021;-84
2022/08/30 08:18:58;;;;;;;66.60;58.42;;;;;;;;;;5092990;28;20086;-78
2022/08/30 08:21:25;;;;;;;18.80;13.10;;;;;;;;;;5093155;28;20035;-77
2022/08/30 08:23:51;;;;;;;17.70;15.55;;;;;;;;;;5126337;27;20127;-79
2022/08/30 08:26:17;;;;;;;13.43;11.50;;;;;;;;;;5092818;28;20132;-79
2022/08/30 08:28:45;;;;;;;17.98;11.45;;;;;;;;;;5127783;27;20058;-79
2022/08/30 08:31:15;;;;;;;16.80;11.93;;;;;;;;;;5110240;28;20072;-79
2022/08/30 08:33:41;;;;;;;18.63;16.35;;;;;;;;;;5127158;27;20028;-76
2022/08/30 08:36:07;;;;;;;12.50;10.80;;;;;;;;;;5126843;27;20054;-76
2022/08/30 08:38:33;;;;;;;38.50;30.00;;;;;;;;;;5127048;27;20024;-79
2022/08/30 08:41:06;;;;;;;16.65;14.15;;;;;;;;;;5122676;27;20024;-80
2022/08/30 08:43:34;;;;;;;23.27;13.68;;;;;;;;;;5096342;28;20085;-76
2022/08/30 08:46:05;;;;;;;20.52;14.35;;;;;;;;;;5092369;28;20020;-77
2022/08/30 08:48:38;;;;;;;14.25;12.40;;;;;;;;;;5126948;27;20372;-79
2022/08/30 08:53:59;;;;;;;12.73;10.18;;;;;;;;;;5081023;28;20039;-77
2022/08/30 08:56:26;;;;;;;14.95;12.95;;;;;;;;;;5117187;27;20027;-78
2022/08/30 08:58:54;;;;;;;15.77;11.18;;;;;;;;;;5079654;28;20480;-81
2022/08/30 09:01:24;;;;;;;13.85;12.38;;;;;;;;;;5116666;27;20020;-78
2022/08/30 09:03:51;;;;;;;23.38;20.85;;;;;;;;;;5125068;27;20024;-78
2022/08/30 09:06:20;;;;;;;16.42;12.60;;;;;;;;;;5112682;27;20016;-79
2022/08/30 09:08:46;;;;;;;14.90;11.48;;;;;;;;;;5096128;28;20499;-81
2022/08/30 09:11:16;;;;;;;19.75;15.13;;;;;;;;;;5093202;28;20387;-79
2022/08/30 09:13:42;;;;;;;13.20;9.63;;;;;;;;;;5092997;28;20113;-80
2022/08/30 09:16:08;;;;;;;17.42;13.13;;;;;;;;;;5120645;27;20017;-79
2022/08/30 09:18:43;;;;;;;20.55;14.70;;;;;;;;;;5106271;28;20028;-82
2022/08/30 09:21:10;;;;;;;47.28;41.92;;;;;;;;;;5106036;28;20070;-77
2022/08/30 09:23:36;;;;;;;10.60;9.63;;;;;;;;;;5126488;27;20155;-82
2022/08/30 09:26:04;;;;;;;13.43;11.88;;;;;;;;;;5111897;27;20031;-81
2022/08/30 09:28:33;;;;;;;18.17;16.30;;;;;;;;;;5126737;27;20028;-81
2022/08/30 09:31:28;;;;;;;14.48;12.75;;;;;;;;;;5092747;28;20042;-81
2022/08/30 09:33:55;;;;;;;17.27;10.45;;;;;;;;;;5083556;28;20169;-81
2022/08/30 09:36:45;;;;;;;15.70;9.80;;;;;;;;;;5091992;28;20027;-82
2022/08/30 09:39:19;;;;;;;10.95;9.77;;;;;;;;;;5082148;28;20032;-79
2022/08/30 09:41:48;;;;;;;19.80;12.23;;;;;;;;;;5092665;28;20024;-81
2022/08/30 09:44:14;;;;;;;14.65;9.70;;;;;;;;;;5089570;28;20036;-77
2022/08/30 09:46:59;;;;;;;14.07;11.63;;;;;;;;;;5089009;28;20123;-78
2022/08/30 09:49:33;;;;;;;13.40;12.00;;;;;;;;;;5092085;28;20028;-78
2022/08/30 09:52:12;;;;;;;13.68;9.75;;;;;;;;;;5127172;27;20032;-80
2022/08/30 09:54:47;;;;;;;13.68;8.85;;;;;;;;;;5126425;27;20020;-78
2022/08/30 09:57:27;;;;;;;12.00;8.60;;;;;;;;;;5097328;28;20028;-78
2022/08/30 09:59:53;;;;;;;21.17;11.55;;;;;;;;;;5106091;28;20105;-83
2022/08/30 10:02:26;;;;;;;11.50;9.73;;;;;;;;;;5119983;27;20031;-80
2022/08/30 10:04:55;;;;;;;12.20;9.68;;;;;;;;;;5090820;28;20028;-81
2022/08/30 10:07:21;;;;;;;12.60;10.68;;;;;;;;;;5123764;27;20042;-83
2022/08/30 10:10:05;;;;;;;11.43;9.02;;;;;;;;;;5091963;28;20475;-82
2022/08/30 10:12:46;;;;;;;10.70;9.60;;;;;;;;;;5093203;28;20063;-82
2022/08/30 10:15:18;;;;;;;11.80;8.60;;;;;;;;;;5102151;28;20024;-83
2022/08/30 10:17:44;;;;;;;10.18;8.82;;;;;;;;;;5091978;28;20103;-83
2022/08/30 10:20:16;;;;;;;19.63;10.38;;;;;;;;;;5092197;28;20444;-83
2022/08/30 10:41:11;;;;;;;9.52;8.55;;;;;;;;;;5096055;27;1369820;-84
2022/08/30 10:42:49;;;;;;;9.50;8.63;;;;;;;;;;5130382;28;20037;-83
2022/08/30 10:45:16;;;;;;;12.93;9.35;;;;;;;;;;5112317;28;20028;-83
2022/08/30 10:47:48;;;;;;;16.52;10.15;;;;;;;;;;5108661;28;20463;-82
2022/08/30 10:50:27;;;;;;;11.23;9.55;;;;;;;;;;5102685;28;20469;-83
2022/08/30 10:53:07;;;;;;;12.52;10.23;;;;;;;;;;5093521;28;20102;-84
2022/08/30 10:55:35;;;;;;;12.43;10.98;;;;;;;;;;5104274;28;20023;-83
2022/08/30 10:58:03;;;;;;;11.23;10.13;;;;;;;;;;5094128;28;20414;-84
2022/08/30 11:00:41;;;;;;;12.07;10.57;;;;;;;;;;5091955;28;20386;-83
2022/08/30 11:03:19;;;;;;;11.30;9.23;;;;;;;;;;5095577;28;20497;-84
2022/08/30 11:06:09;;;;;;;11.60;10.27;;;;;;;;;;5112337;28;20023;-83
2022/08/30 11:08:41;;;;;;;10.60;9.50;;;;;;;;;;5076454;28;20036;-82
2022/08/30 11:11:10;;;;;;;12.25;10.60;;;;;;;;;;5091799;28;20024;-83
2022/08/30 11:13:38;;;;;;;12.98;10.45;;;;;;;;;;5098336;28;20035;-83
2022/08/30 11:16:09;;;;;;;10.88;9.50;;;;;;;;;;5111909;28;20024;-82
2022/08/30 11:18:50;;;;;;;11.30;9.68;;;;;;;;;;5092086;28;20470;-83
2022/08/30 11:21:22;;;;;;;14.95;13.40;;;;;;;;;;5105532;28;20047;-83
2022/08/30 11:24:00;;;;;;;10.10;9.05;;;;;;;;;;5108364;28;20034;-82
2022/08/30 11:26:55;;;;;;;11.73;9.73;;;;;;;;;;5111951;28;20038;-82
2022/08/30 11:29:54;;;;;;;11.50;9.73;;;;;;;;;;5099016;28;20084;-82
2022/08/30 11:32:22;;;;;;;11.93;9.98;;;;;;;;;;5085749;28;20027;-82
2022/08/30 11:34:48;;;;;;;13.02;10.20;;;;;;;;;;5098691;28;20095;-82
2022/08/30 11:37:34;;;;;;;10.63;9.50;;;;;;;;;;5095876;28;20053;-82
2022/08/30 11:40:02;;;;;;;11.48;9.85;;;;;;;;;;5102318;28;20058;-83
2022/08/30 11:42:30;;;;;;;15.60;11.57;;;;;;;;;;5084591;28;20019;-82
2022/08/30 11:45:15;;;;;;;16.70;11.05;;;;;;;;;;5104234;28;20497;-82
2022/08/30 11:47:44;;;;;;;12.40;10.80;;;;;;;;;;5081814;28;20036;-82
2022/08/30 11:50:20;;;;;;;11.80;10.55;;;;;;;;;;5085654;28;20108;-81
2022/08/30 11:52:55;;;;;;;11.85;10.57;;;;;;;;;;5082878;28;20062;-80
2022/08/30 11:55:39;;;;;;;10.27;9.23;;;;;;;;;;5086026;28;20028;-83
2022/08/30 11:58:12;;;;;;;14.18;11.95;;;;;;;;;;5087842;28;20028;-78
2022/08/30 12:00:39;;;;;;;11.40;8.65;;;;;;;;;;5098188;28;20350;-77
2022/08/30 12:03:07;;;;;;;14.95;12.73;;;;;;;;;;5096080;28;20138;-79
2022/08/30 12:05:39;;;;;;;7.53;6.60;;;;;;;;;;5096390;28;20019;-77
2022/08/30 12:08:10;;;;;;;10.90;9.80;;;;;;;;;;5093268;28;20036;-82
2022/08/30 12:10:38;;;;;;;11.73;8.63;;;;;;;;;;5084613;28;20028;-77
2022/08/30 12:13:04;;;;;;;11.02;7.55;;;;;;;;;;5085888;28;20059;-77
2022/08/30 12:15:49;;;;;;;13.10;11.68;;;;;;;;;;5104966;28;20012;-79
2022/08/30 12:18:26;;;;;;;8.07;7.25;;;;;;;;;;5113469;28;20152;-77
2022/08/30 12:20:53;;;;;;;14.13;11.15;;;;;;;;;;5113588;28;20111;-77
2022/08/30 12:23:23;;;;;;;11.90;9.95;;;;;;;;;;5091033;28;20127;-76
2022/08/30 12:25:50;;;;;;;10.85;9.73;;;;;;;;;;5086862;28;20020;-79
2022/08/30 12:28:21;;;;;;;10.57;8.32;;;;;;;;;;5098245;28;20027;-77
2022/08/30 12:30:47;;;;;;;12.45;10.30;;;;;;;;;;5094388;28;20026;-78
2022/08/30 12:33:23;;;;;;;11.13;9.90;;;;;;;;;;5084044;28;20024;-78
2022/08/30 12:35:49;;;;;;;9.73;8.50;;;;;;;;;;5093562;28;20012;-77
2022/08/30 12:38:18;;;;;;;14.65;9.38;;;;;;;;;;5112535;28;20052;-78
2022/08/30 12:40:55;;;;;;;10.15;9.15;;;;;;;;;;5090613;28;20431;-78
2022/08/30 12:43:41;;;;;;;17.80;15.98;;;;;;;;;;5090223;28;20370;-77
2022/08/30 12:46:09;;;;;;;13.55;9.18;;;;;;;;;;5077004;28;20031;-80
2022/08/30 12:48:37;;;;;;;20.10;8.70;;;;;;;;;;5091647;28;20034;-79
2022/08/30 12:51:04;;;;;;;24.38;14.73;;;;;;;;;;5089467;28;20481;-79
2022/08/30 12:53:40;;;;;;;23.50;18.08;;;;;;;;;;5096038;28;20069;-80
2022/08/30 12:56:11;;;;;;;11.73;8.95;;;;;;;;;;5084531;28;20024;-78
2022/08/30 12:58:40;;;;;;;13.38;9.20;;;;;;;;;;5112952;28;20032;-77
2022/08/30 13:01:12;;;;;;;10.27;9.32;;;;;;;;;;5104163;28;20024;-79
2022/08/30 13:03:39;;;;;;;16.70;11.25;;;;;;;;;;5091153;28;20023;-78
2022/08/30 13:06:06;;;;;;;14.27;9.90;;;;;;;;;;5113612;28;20011;-79
2022/08/30 13:08:35;;;;;;;10.43;9.43;;;;;;;;;;5080247;28;20016;-78
2022/08/30 13:11:04;;;;;;;12.32;11.10;;;;;;;;;;5081325;28;20031;-76
2022/08/30 13:13:37;;;;;;;11.95;10.07;;;;;;;;;;5076136;28;20028;-79
2022/08/30 13:16:26;;;;;;;20.45;18.50;;;;;;;;;;5082191;28;20078;-78
2022/08/30 13:19:15;;;;;;;16.75;11.93;;;;;;;;;;5099783;28;20033;-76
2022/08/30 13:21:58;;;;;;;15.05;10.93;;;;;;;;;;5079455;28;20381;-78
2022/08/30 13:24:24;;;;;;;9.27;8.00;;;;;;;;;;5089114;28;20035;-77
2022/08/30 13:26:51;;;;;;;15.85;10.73;;;;;;;;;;5081023;28;20032;-79
2022/08/30 13:29:18;;;;;;;10.70;8.85;;;;;;;;;;5086342;28;20029;-79
2022/08/30 13:31:45;;;;;;;13.65;9.93;;;;;;;;;;5079436;28;20107;-79
2022/08/30 13:34:11;;;;;;;25.08;22.58;;;;;;;;;;5094249;28;20016;-80
2022/08/30 13:36:42;;;;;;;16.83;13.90;;;;;;;;;;5078937;28;20108;-79
2022/08/30 13:39:08;;;;;;;34.05;30.45;;;;;;;;;;5112060;28;20482;-77
2022/08/30 13:41:34;;;;;;;16.10;13.70;;;;;;;;;;5112194;28;20069;-77
2022/08/30 13:44:00;;;;;;;21.33;19.00;;;;;;;;;;5090253;28;20413;-77
2022/08/30 13:46:26;;;;;;;21.45;19.20;;;;;;;;;;5073544;28;20111;-78
2022/08/30 13:48:58;;;;;;;18.15;16.02;;;;;;;;;;5107312;28;20103;-80
2022/08/30 13:51:25;;;;;;;11.55;9.88;;;;;;;;;;5087393;28;20082;-78
2022/08/30 13:53:51;;;;;;;17.17;15.32;;;;;;;;;;5106427;28;20076;-76
2022/08/30 13:56:17;;;;;;;16.33;13.40;;;;;;;;;;5087961;28;20103;-81
2022/08/30 13:58:43;;;;;;;14.23;10.57;;;;;;;;;;5101877;28;20081;-78
2022/08/30 14:01:09;;;;;;;32.10;25.70;;;;;;;;;;5082889;28;20060;-78
2022/08/30 14:03:35;;;;;;;11.85;10.68;;;;;;;;;;5083064;28;20012;-75
2022/08/30 14:06:01;;;;;;;9.55;8.50;;;;;;;;;;5089958;28;20020;-76
2022/08/30 14:08:29;;;;;;;8.82;7.93;;;;;;;;;;5093371;28;20016;-77
2022/08/30 14:10:56;;;;;;;11.27;8.40;;;;;;;;;;5082177;28;20035;-75
2022/08/30 14:13:22;;;;;;;21.98;16.02;;;;;;;;;;5087148;28;20153;-75
2022/08/30 14:15:48;;;;;;;9.50;7.38;;;;;;;;;;5086470;28;20024;-76
2022/08/30 14:18:14;;;;;;;10.70;9.27;;;;;;;;;;5088206;28;20032;-77
2022/08/30 14:20:40;;;;;;;13.43;12.10;;;;;;;;;;5082231;28;20007;-76
2022/08/30 14:23:06;;;;;;;20.65;14.10;;;;;;;;;;5097482;28;20031;-76
2022/08/30 14:25:33;;;;;;;8.15;7.22;;;;;;;;;;5082294;28;20481;-75
2022/08/30 14:27:59;;;;;;;19.08;16.88;;;;;;;;;;5108017;28;20062;-76
2022/08/30 14:30:26;;;;;;;9.65;6.93;;;;;;;;;;5108532;28;20055;-78
2022/08/30 14:32:53;;;;;;;12.57;8.02;;;;;;;;;;5086870;28;20021;-77
2022/08/30 14:35:19;;;;;;;16.23;13.13;;;;;;;;;;5073868;28;20055;-76
2022/08/30 14:37:46;;;;;;;22.92;17.65;;;;;;;;;;5084276;28;20433;-77
2022/08/30 14:40:12;;;;;;;9.27;8.35;;;;;;;;;;5091089;28;20431;-79
2022/08/30 14:42:38;;;;;;;9.70;6.05;;;;;;;;;;5079612;28;20023;-80
2022/08/30 14:45:05;;;;;;;13.63;12.20;;;;;;;;;;5087366;28;20033;-77
2022/08/30 14:47:31;;;;;;;11.45;8.52;;;;;;;;;;5094953;28;20028;-77
2022/08/30 14:49:59;;;;;;;10.85;8.90;;;;;;;;;;5078938;28;20026;-78
2022/08/30 14:52:26;;;;;;;12.10;8.00;;;;;;;;;;5093186;28;20024;-78
2022/08/30 14:54:52;;;;;;;11.13;7.40;;;;;;;;;;5110913;28;20031;-77